sensor_id;sensor_type;location;lat;lon;timestamp;pressure;altitude;pressure_sealevel;temperature;humidity
39243;BME280;29823;47.404;8.566;2023-06-10T00:02:21;95947.69;;;19.40;91.99
39243;BME280;29823;47.404;8.566;2023-06-10T00:04:49;95956.72;;;19.49;95.46
39243;BME280;29823;47.404;8.566;2023-06-10T00:07:17;95954.81;;;19.50;97.89
39243;BME280;29823;47.404;8.566;2023-06-10T00:09:44;95964.78;;;19.54;94.89
39243;BME280;29823;47.404;8.566;2023-06-10T00:12:14;95959.84;;;19.43;98.01
39243;BME280;29823;47.404;8.566;2023-06-10T00:14:43;95961.81;;;19.37;100.00
39243;BME280;29823;47.404;8.566;2023-06-10T00:17:11;95961.06;;;19.18;100.00
39243;BME280;29823;47.404;8.566;2023-06-10T00:19:39;95967.88;;;19.16;100.00
39243;BME280;29823;47.404;8.566;2023-06-10T00:22:08;95965.94;;;19.21;97.52
39243;BME280;29823;47.404;8.566;2023-06-10T00:24:37;95962.47;;;19.16;98.76
39243;BME280;29823;47.404;8.566;2023-06-10T00:27:06;95961.66;;;19.15;100.00
39243;BME280;29823;47.404;8.566;2023-06-10T00:29:35;95964.75;;;19.27;100.00
39243;BME280;29823;47.404;8.566;2023-06-10T00:32:04;95958.75;;;19.12;100.00
39243;BME280;29823;47.404;8.566;2023-06-10T00:34:32;95957.97;;;19.11;100.00
39243;BME280;29823;47.404;8.566;2023-06-10T00:37:00;95959.66;;;19.07;100.00
39243;BME280;29823;47.404;8.566;2023-06-10T00:39:28;95954.41;;;18.97;100.00
39243;BME280;29823;47.404;8.566;2023-06-10T00:41:56;95959.72;;;19.02;100.00
39243;BME280;29823;47.404;8.566;2023-06-10T00:44:23;95961.63;;;19.02;100.00
39243;BME280;29823;47.404;8.566;2023-06-10T00:46:53;95962.28;;;18.80;100.00
39243;BME280;29823;47.404;8.566;2023-06-10T00:49:22;95962.59;;;18.60;100.00
39243;BME280;29823;47.404;8.566;2023-06-10T00:51:50;95952.00;;;18.45;100.00
39243;BME280;29823;47.404;8.566;2023-06-10T00:54:19;95955.00;;;18.62;100.00
39243;BME280;29823;47.404;8.566;2023-06-10T00:56:48;95954.63;;;18.50;100.00
39243;BME280;29823;47.404;8.566;2023-06-10T00:59:17;95949.19;;;18.50;100.00
39243;BME280;29823;47.404;8.566;2023-06-10T01:01:45;95951.50;;;18.43;100.00
39243;BME280;29823;47.404;8.566;2023-06-10T01:04:15;95949.88;;;18.42;100.00
39243;BME280;29823;47.404;8.566;2023-06-10T01:06:48;95948.94;;;18.33;100.00
39243;BME280;29823;47.404;8.566;2023-06-10T01:09:31;95954.38;;;18.28;100.00
39243;BME280;29823;47.404;8.566;2023-06-10T01:12:03;95950.69;;;18.24;100.00
39243;BME280;29823;47.404;8.566;2023-06-10T01:14:36;95951.25;;;18.21;100.00
39243;BME280;29823;47.404;8.566;2023-06-10T01:17:06;95947.66;;;18.26;100.00
39243;BME280;29823;47.404;8.566;2023-06-10T01:19:37;95948.03;;;18.19;100.00
39243;BME280;29823;47.404;8.566;2023-06-10T01:22:06;95938.81;;;18.20;100.00
39243;BME280;29823;47.404;8.566;2023-06-10T01:24:33;95948.03;;;18.19;100.00
39243;BME280;29823;47.404;8.566;2023-06-10T01:27:05;95957.28;;;18.13;100.00
39243;BME280;29823;47.404;8.566;2023-06-10T01:29:39;95954.16;;;18.06;100.00
39243;BME280;29823;47.404;8.566;2023-06-10T01:32:13;95954.97;;;18.07;100.00
39243;BME280;29823;47.404;8.566;2023-06-10T01:34:43;95964.03;;;17.97;100.00
39243;BME280;29823;47.404;8.566;2023-06-10T01:37:16;95958.53;;;18.02;100.00
39243;BME280;29823;47.404;8.566;2023-06-10T01:39:48;95958.53;;;18.02;100.00
39243;BME280;29823;47.404;8.566;2023-06-10T01:42:17;95964.38;;;17.91;100.00
39243;BME280;29823;47.404;8.566;2023-06-10T01:44:45;95960.09;;;17.66;100.00
39243;BME280;29823;47.404;8.566;2023-06-10T01:47:13;95966.28;;;17.67;100.00
39243;BME280;29823;47.404;8.566;2023-06-10T01:49:40;95966.06;;;17.63;100.00
39243;BME280;29823;47.404;8.566;2023-06-10T01:52:08;95965.56;;;17.61;100.00
39243;BME280;29823;47.404;8.566;2023-06-10T01:54:37;95964.53;;;17.57;100.00
39243;BME280;29823;47.404;8.566;2023-06-10T01:57:05;95964.69;;;17.66;100.00
39243;BME280;29823;47.404;8.566;2023-06-10T01:59:33;95961.25;;;17.60;100.00
39243;BME280;29823;47.404;8.566;2023-06-10T02:02:03;95963.78;;;17.52;100.00
39243;BME280;29823;47.404;8.566;2023-06-10T02:04:31;95969.09;;;17.33;100.00
39243;BME280;29823;47.404;8.566;2023-06-10T02:06:59;95966.50;;;17.23;100.00
39243;BME280;29823;47.404;8.566;2023-06-10T02:09:30;95970.47;;;17.31;100.00
39243;BME280;29823;47.404;8.566;2023-06-10T02:12:03;95969.94;;;17.29;100.00
39243;BME280;29823;47.404;8.566;2023-06-10T02:14:33;95975.28;;;17.39;100.00
39243;BME280;29823;47.404;8.566;2023-06-10T02:17:00;95979.09;;;17.61;100.00
39243;BME280;29823;47.404;8.566;2023-06-10T02:19:28;95980.28;;;17.50;100.00
39243;BME280;29823;47.404;8.566;2023-06-10T02:21:57;95969.03;;;17.43;100.00
39243;BME280;29823;47.404;8.566;2023-06-10T02:24:25;95980.19;;;17.32;100.00
39243;BME280;29823;47.404;8.566;2023-06-10T02:26:52;95977.75;;;17.30;100.00
39243;BME280;29823;47.404;8.566;2023-06-10T02:29:23;95983.44;;;17.29;100.00
39243;BME280;29823;47.404;8.566;2023-06-10T02:31:51;95987.00;;;17.24;100.00
39243;BME280;29823;47.404;8.566;2023-06-10T02:34:19;95986.09;;;17.34;100.00
39243;BME280;29823;47.404;8.566;2023-06-10T02:36:47;95988.66;;;17.20;100.00
39243;BME280;29823;47.404;8.566;2023-06-10T02:39:17;95993.66;;;17.08;100.00
39243;BME280;29823;47.404;8.566;2023-06-10T02:41:45;95996.44;;;16.98;100.00
39243;BME280;29823;47.404;8.566;2023-06-10T02:44:13;95992.41;;;16.96;100.00
39243;BME280;29823;47.404;8.566;2023-06-10T02:46:42;96001.84;;;16.98;100.00
39243;BME280;29823;47.404;8.566;2023-06-10T02:49:11;96001.59;;;16.95;100.00
39243;BME280;29823;47.404;8.566;2023-06-10T02:51:41;96003.22;;;16.96;100.00
39243;BME280;29823;47.404;8.566;2023-06-10T02:54:09;96002.91;;;17.02;100.00
39243;BME280;29823;47.404;8.566;2023-06-10T02:56:37;96007.81;;;16.95;100.00
39243;BME280;29823;47.404;8.566;2023-06-10T02:59:08;96010.00;;;16.93;100.00
39243;BME280;29823;47.404;8.566;2023-06-10T03:01:37;96014.34;;;16.89;100.00
39243;BME280;29823;47.404;8.566;2023-06-10T03:04:06;96007.31;;;16.88;100.00
39243;BME280;29823;47.404;8.566;2023-06-10T03:06:35;96010.66;;;16.80;100.00
39243;BME280;29823;47.404;8.566;2023-06-10T03:09:04;96005.47;;;16.84;100.00
39243;BME280;29823;47.404;8.566;2023-06-10T03:11:32;96010.72;;;16.70;100.00
39243;BME280;29823;47.404;8.566;2023-06-10T03:14:00;96012.16;;;16.58;100.00
39243;BME280;29823;47.404;8.566;2023-06-10T03:16:28;96016.41;;;16.69;100.00
39243;BME280;29823;47.404;8.566;2023-06-10T03:18:58;96009.16;;;16.64;100.00
39243;BME280;29823;47.404;8.566;2023-06-10T03:21:27;96010.22;;;16.68;100.00
39243;BME280;29823;47.404;8.566;2023-06-10T03:23:55;96019.34;;;16.72;100.00
39243;BME280;29823;47.404;8.566;2023-06-10T03:26:22;96013.94;;;16.72;100.00
39243;BME280;29823;47.404;8.566;2023-06-10T03:28:50;96016.13;;;16.70;100.00
39243;BME280;29823;47.404;8.566;2023-06-10T03:31:18;96018.03;;;16.65;100.00
39243;BME280;29823;47.404;8.566;2023-06-10T03:33:46;96017.78;;;16.61;100.00
39243;BME280;29823;47.404;8.566;2023-06-10T03:36:14;96025.38;;;16.59;100.00
39243;BME280;29823;47.404;8.566;2023-06-10T03:38:43;96026.91;;;16.70;100.00
39243;BME280;29823;47.404;8.566;2023-06-10T03:41:11;96024.97;;;16.76;100.00
39243;BME280;29823;47.404;8.566;2023-06-10T03:43:40;96027.16;;;16.74;100.00
39243;BME280;29823;47.404;8.566;2023-06-10T03:46:08;96029.09;;;16.68;100.00
39243;BME280;29823;47.404;8.566;2023-06-10T03:48:36;96042.81;;;16.77;100.00
39243;BME280;29823;47.404;8.566;2023-06-10T03:51:05;96039.97;;;16.58;100.00
39243;BME280;29823;47.404;8.566;2023-06-10T03:53:33;96035.53;;;16.72;100.00
39243;BME280;29823;47.404;8.566;2023-06-10T03:56:02;96042.06;;;16.66;100.00
39243;BME280;29823;47.404;8.566;2023-06-10T03:58:30;96038.06;;;16.59;100.00
39243;BME280;29823;47.404;8.566;2023-06-10T04:00:57;96046.41;;;16.62;100.00
39243;BME280;29823;47.404;8.566;2023-06-10T04:03:25;96049.63;;;16.64;100.00
39243;BME280;29823;47.404;8.566;2023-06-10T04:05:54;96048.13;;;16.48;100.00
39243;BME280;29823;47.404;8.566;2023-06-10T04:08:21;96055.91;;;16.55;100.00
39243;BME280;29823;47.404;8.566;2023-06-10T04:10:50;96049.06;;;16.67;100.00
39243;BME280;29823;47.404;8.566;2023-06-10T04:13:19;96053.63;;;16.72;100.00
39243;BME280;29823;47.404;8.566;2023-06-10T04:15:47;96051.72;;;16.72;100.00
39243;BME280;29823;47.404;8.566;2023-06-10T04:18:14;96048.22;;;16.77;100.00
39243;BME280;29823;47.404;8.566;2023-06-10T04:20:42;96052.66;;;16.96;100.00
39243;BME280;29823;47.404;8.566;2023-06-10T04:23:11;96055.84;;;16.98;100.00
39243;BME280;29823;47.404;8.566;2023-06-10T04:25:39;96066.31;;;17.10;100.00
39243;BME280;29823;47.404;8.566;2023-06-10T04:28:07;96060.91;;;17.10;100.00
39243;BME280;29823;47.404;8.566;2023-06-10T04:30:36;96066.97;;;17.25;100.00
39243;BME280;29823;47.404;8.566;2023-06-10T04:33:03;96069.06;;;17.38;100.00
39243;BME280;29823;47.404;8.566;2023-06-10T04:35:34;96074.66;;;17.47;100.00
39243;BME280;29823;47.404;8.566;2023-06-10T04:38:02;96066.25;;;17.48;100.00
39243;BME280;29823;47.404;8.566;2023-06-10T04:40:30;96072.84;;;17.66;100.00
39243;BME280;29823;47.404;8.566;2023-06-10T04:42:58;96066.47;;;17.80;100.00
39243;BME280;29823;47.404;8.566;2023-06-10T04:45:26;96080.56;;;17.77;100.00
39243;BME280;29823;47.404;8.566;2023-06-10T04:47:56;96073.13;;;17.88;100.00
39243;BME280;29823;47.404;8.566;2023-06-10T04:50:24;96068.13;;;18.00;100.00
39243;BME280;29823;47.404;8.566;2023-06-10T04:52:52;96075.41;;;18.04;100.00
39243;BME280;29823;47.404;8.566;2023-06-10T04:55:20;96082.47;;;18.24;100.00
39243;BME280;29823;47.404;8.566;2023-06-10T04:57:48;96082.41;;;18.29;100.00
39243;BME280;29823;47.404;8.566;2023-06-10T05:00:18;96081.50;;;18.38;100.00
39243;BME280;29823;47.404;8.566;2023-06-10T05:02:46;96085.41;;;18.51;100.00
39243;BME280;29823;47.404;8.566;2023-06-10T05:05:18;96075.69;;;18.68;100.00
39243;BME280;29823;47.404;8.566;2023-06-10T05:07:45;96090.16;;;18.77;100.00
39243;BME280;29823;47.404;8.566;2023-06-10T05:10:14;96079.78;;;18.84;100.00
39243;BME280;29823;47.404;8.566;2023-06-10T05:12:42;96084.75;;;18.96;100.00
39243;BME280;29823;47.404;8.566;2023-06-10T05:15:10;96084.00;;;19.27;98.00
39243;BME280;29823;47.404;8.566;2023-06-10T05:17:38;96093.06;;;19.36;99.68
39243;BME280;29823;47.404;8.566;2023-06-10T05:20:07;96091.47;;;19.35;94.97
39243;BME280;29823;47.404;8.566;2023-06-10T05:22:36;96098.88;;;19.62;90.63
39243;BME280;29823;47.404;8.566;2023-06-10T05:25:05;96088.25;;;19.65;90.41
39243;BME280;29823;47.404;8.566;2023-06-10T05:27:34;96093.28;;;19.85;89.82
39243;BME280;29823;47.404;8.566;2023-06-10T05:30:02;96106.47;;;20.05;86.07
39243;BME280;29823;47.404;8.566;2023-06-10T05:32:30;96103.56;;;20.02;86.36
39243;BME280;29823;47.404;8.566;2023-06-10T05:34:58;96100.84;;;20.02;85.11
39243;BME280;29823;47.404;8.566;2023-06-10T05:37:27;96104.28;;;20.07;85.41
39243;BME280;29823;47.404;8.566;2023-06-10T05:39:56;96101.72;;;20.29;83.14
39243;BME280;29823;47.404;8.566;2023-06-10T05:42:24;96110.75;;;20.25;86.43
39243;BME280;29823;47.404;8.566;2023-06-10T05:44:52;96111.56;;;20.12;82.76
39243;BME280;29823;47.404;8.566;2023-06-10T05:47:19;96117.09;;;20.20;82.78
39243;BME280;29823;47.404;8.566;2023-06-10T05:49:47;96115.16;;;20.21;81.41
39243;BME280;29823;47.404;8.566;2023-06-10T05:52:18;96117.28;;;20.51;79.79
39243;BME280;29823;47.404;8.566;2023-06-10T05:54:45;96113.63;;;20.55;83.06
39243;BME280;29823;47.404;8.566;2023-06-10T05:57:15;96104.19;;;20.39;83.02
39243;BME280;29823;47.404;8.566;2023-06-10T05:59:42;96109.50;;;20.58;82.10
39243;BME280;29823;47.404;8.566;2023-06-10T06:02:10;96108.53;;;20.40;82.07
39243;BME280;29823;47.404;8.566;2023-06-10T06:04:38;96111.50;;;20.93;79.12
39243;BME280;29823;47.404;8.566;2023-06-10T06:07:06;96109.16;;;20.86;78.55
39243;BME280;29823;47.404;8.566;2023-06-10T06:09:34;96107.41;;;21.17;74.78
39243;BME280;29823;47.404;8.566;2023-06-10T06:12:02;96113.03;;;21.21;76.00
39243;BME280;29823;47.404;8.566;2023-06-10T06:14:31;96113.97;;;21.38;74.97
39243;BME280;29823;47.404;8.566;2023-06-10T06:16:59;96115.56;;;21.39;74.20
39243;BME280;29823;47.404;8.566;2023-06-10T06:19:27;96106.72;;;21.34;73.46
39243;BME280;29823;47.404;8.566;2023-06-10T06:21:55;96101.63;;;21.76;72.20
39243;BME280;29823;47.404;8.566;2023-06-10T06:24:22;96103.44;;;21.89;70.45
39243;BME280;29823;47.404;8.566;2023-06-10T06:26:51;96093.94;;;21.56;75.20
39243;BME280;29823;47.404;8.566;2023-06-10T06:29:18;96110.22;;;22.00;72.22
39243;BME280;29823;47.404;8.566;2023-06-10T06:31:48;96098.25;;;21.79;69.47
39243;BME280;29823;47.404;8.566;2023-06-10T06:34:15;96107.38;;;22.05;69.31
39243;BME280;29823;47.404;8.566;2023-06-10T06:36:43;96093.03;;;22.22;68.02
39243;BME280;29823;47.404;8.566;2023-06-10T06:39:11;96099.00;;;22.32;67.83
39243;BME280;29823;47.404;8.566;2023-06-10T06:41:39;96092.78;;;22.40;68.81
39243;BME280;29823;47.404;8.566;2023-06-10T06:44:07;96100.19;;;22.48;68.57
39243;BME280;29823;47.404;8.566;2023-06-10T06:46:34;96089.56;;;23.11;65.36
39243;BME280;29823;47.404;8.566;2023-06-10T06:49:03;96095.50;;;22.40;70.59
39243;BME280;29823;47.404;8.566;2023-06-10T06:51:31;96102.84;;;22.79;68.21
39243;BME280;29823;47.404;8.566;2023-06-10T06:53:59;96095.66;;;22.35;67.81
39243;BME280;29823;47.404;8.566;2023-06-10T06:56:27;96099.78;;;22.80;66.62
39243;BME280;29823;47.404;8.566;2023-06-10T06:58:55;96092.97;;;23.25;63.56
39243;BME280;29823;47.404;8.566;2023-06-10T07:01:23;96092.91;;;22.74;62.40
39243;BME280;29823;47.404;8.566;2023-06-10T07:03:51;96099.34;;;22.95;65.96
39243;BME280;29823;47.404;8.566;2023-06-10T07:06:20;96106.03;;;22.72;65.24
39243;BME280;29823;47.404;8.566;2023-06-10T07:08:49;96102.75;;;23.43;64.31
39243;BME280;29823;47.404;8.566;2023-06-10T07:11:17;96106.13;;;23.23;60.89
39243;BME280;29823;47.404;8.566;2023-06-10T07:13:45;96095.63;;;23.85;59.23
39243;BME280;29823;47.404;8.566;2023-06-10T07:16:13;96107.66;;;24.01;60.34
39243;BME280;29823;47.404;8.566;2023-06-10T07:18:41;96107.03;;;24.41;58.75
39243;BME280;29823;47.404;8.566;2023-06-10T07:21:08;96096.34;;;24.57;58.91
39243;BME280;29823;47.404;8.566;2023-06-10T07:23:41;96104.66;;;23.51;59.80
39243;BME280;29823;47.404;8.566;2023-06-10T07:26:09;96101.41;;;23.92;58.32
39243;BME280;29823;47.404;8.566;2023-06-10T07:28:37;96105.47;;;23.60;61.72
39243;BME280;29823;47.404;8.566;2023-06-10T07:31:06;96111.88;;;23.81;59.91
39243;BME280;29823;47.404;8.566;2023-06-10T07:33:34;96102.09;;;23.29;58.52
39243;BME280;29823;47.404;8.566;2023-06-10T07:36:03;96102.88;;;23.89;60.37
39243;BME280;29823;47.404;8.566;2023-06-10T07:38:31;96102.03;;;24.43;59.31
39243;BME280;29823;47.404;8.566;2023-06-10T07:41:00;96103.75;;;24.56;58.60
39243;BME280;29823;47.404;8.566;2023-06-10T07:43:28;96110.75;;;25.03;57.23
39243;BME280;29823;47.404;8.566;2023-06-10T07:45:56;96110.41;;;24.47;56.79
39243;BME280;29823;47.404;8.566;2023-06-10T07:48:24;96105.44;;;23.77;57.28
39243;BME280;29823;47.404;8.566;2023-06-10T07:50:51;96104.94;;;25.05;55.94
39243;BME280;29823;47.404;8.566;2023-06-10T07:53:19;96111.03;;;25.51;53.90
39243;BME280;29823;47.404;8.566;2023-06-10T07:55:47;96102.88;;;25.43;54.41
39243;BME280;29823;47.404;8.566;2023-06-10T07:58:16;96104.59;;;24.86;58.20
39243;BME280;29823;47.404;8.566;2023-06-10T08:00:44;96109.25;;;24.85;57.22
39243;BME280;29823;47.404;8.566;2023-06-10T08:03:12;96099.69;;;25.20;55.67
39243;BME280;29823;47.404;8.566;2023-06-10T08:05:40;96104.09;;;25.86;53.97
39243;BME280;29823;47.404;8.566;2023-06-10T08:08:08;96104.38;;;25.93;52.78
39243;BME280;29823;47.404;8.566;2023-06-10T08:10:36;96112.97;;;25.83;53.08
39243;BME280;29823;47.404;8.566;2023-06-10T08:13:04;96104.09;;;26.19;52.51
39243;BME280;29823;47.404;8.566;2023-06-10T08:15:33;96112.41;;;26.10;50.97
39243;BME280;29823;47.404;8.566;2023-06-10T08:18:01;96104.34;;;26.26;52.23
39243;BME280;29823;47.404;8.566;2023-06-10T08:20:29;96108.44;;;26.20;50.98
39243;BME280;29823;47.404;8.566;2023-06-10T08:22:57;96106.91;;;25.98;51.20
39243;BME280;29823;47.404;8.566;2023-06-10T08:25:25;96103.16;;;26.71;50.53
39243;BME280;29823;47.404;8.566;2023-06-10T08:27:53;96100.00;;;27.21;49.43
39243;BME280;29823;47.404;8.566;2023-06-10T08:30:23;96103.22;;;27.90;48.19
39243;BME280;29823;47.404;8.566;2023-06-10T08:32:52;96096.59;;;27.63;48.04
39243;BME280;29823;47.404;8.566;2023-06-10T08:35:20;96093.22;;;27.42;47.91
39243;BME280;29823;47.404;8.566;2023-06-10T08:37:47;96104.50;;;26.77;48.36
39243;BME280;29823;47.404;8.566;2023-06-10T08:40:15;96097.50;;;27.67;49.31
39243;BME280;29823;47.404;8.566;2023-06-10T08:42:48;96106.22;;;27.57;49.67
39243;BME280;29823;47.404;8.566;2023-06-10T08:45:17;96106.13;;;27.81;47.59
39243;BME280;29823;47.404;8.566;2023-06-10T08:47:46;96084.84;;;27.51;49.50
39243;BME280;29823;47.404;8.566;2023-06-10T08:50:19;96097.28;;;27.21;47.83
39243;BME280;29823;47.404;8.566;2023-06-10T08:52:50;96091.13;;;28.06;47.48
39243;BME280;29823;47.404;8.566;2023-06-10T08:55:24;96085.06;;;26.58;48.91
39243;BME280;29823;47.404;8.566;2023-06-10T08:57:59;96093.03;;;27.63;48.94
39243;BME280;29823;47.404;8.566;2023-06-10T09:00:28;96090.53;;;27.18;49.72
39243;BME280;29823;47.404;8.566;2023-06-10T09:02:56;96091.72;;;26.81;49.59
39243;BME280;29823;47.404;8.566;2023-06-10T09:05:33;96085.78;;;28.41;48.51
39243;BME280;29823;47.404;8.566;2023-06-10T09:08:01;96080.97;;;27.79;49.13
39243;BME280;29823;47.404;8.566;2023-06-10T09:10:29;96086.81;;;27.38;50.15
39243;BME280;29823;47.404;8.566;2023-06-10T09:12:57;96088.56;;;28.29;47.95
39243;BME280;29823;47.404;8.566;2023-06-10T09:15:25;96085.91;;;27.34;47.87
39243;BME280;29823;47.404;8.566;2023-06-10T09:17:53;96082.59;;;28.54;46.60
39243;BME280;29823;47.404;8.566;2023-06-10T09:20:20;96087.88;;;28.32;48.20
39243;BME280;29823;47.404;8.566;2023-06-10T09:22:50;96098.63;;;28.83;48.21
39243;BME280;29823;47.404;8.566;2023-06-10T09:25:17;96088.16;;;27.84;47.49
39243;BME280;29823;47.404;8.566;2023-06-10T09:27:46;96080.25;;;26.91;47.89
39243;BME280;29823;47.404;8.566;2023-06-10T09:30:27;96091.38;;;28.75;46.22
39243;BME280;29823;47.404;8.566;2023-06-10T09:32:56;96087.16;;;28.97;45.06
39243;BME280;29823;47.404;8.566;2023-06-10T09:35:25;96090.34;;;29.33;43.53
39243;BME280;29823;47.404;8.566;2023-06-10T09:37:56;96089.50;;;29.29;43.82
39243;BME280;29823;47.404;8.566;2023-06-10T09:40:24;96086.94;;;28.55;43.32
39243;BME280;29823;47.404;8.566;2023-06-10T09:42:54;96086.06;;;29.36;43.43
39243;BME280;29823;47.404;8.566;2023-06-10T09:45:22;96084.72;;;30.02;42.56
39243;BME280;29823;47.404;8.566;2023-06-10T09:47:53;96082.41;;;29.85;43.26
39243;BME280;29823;47.404;8.566;2023-06-10T09:50:22;96078.56;;;30.54;40.19
39243;BME280;29823;47.404;8.566;2023-06-10T09:52:50;96084.53;;;30.78;39.18
39243;BME280;29823;47.404;8.566;2023-06-10T09:55:19;96082.63;;;30.82;38.93
39243;BME280;29823;47.404;8.566;2023-06-10T09:57:49;96079.56;;;31.13;38.63
39243;BME280;29823;47.404;8.566;2023-06-10T10:00:17;96080.63;;;29.39;41.44
39243;BME280;29823;47.404;8.566;2023-06-10T10:02:47;96078.97;;;29.16;45.02
39243;BME280;29823;47.404;8.566;2023-06-10T10:05:16;96075.28;;;30.03;41.11
39243;BME280;29823;47.404;8.566;2023-06-10T10:07:45;96073.00;;;30.50;40.77
39243;BME280;29823;47.404;8.566;2023-06-10T10:10:15;96076.56;;;29.87;42.47
39243;BME280;29823;47.404;8.566;2023-06-10T10:12:46;96069.81;;;30.48;42.87
39243;BME280;29823;47.404;8.566;2023-06-10T10:15:17;96068.63;;;30.94;40.33
39243;BME280;29823;47.404;8.566;2023-06-10T10:17:49;96079.97;;;31.15;40.00
39243;BME280;29823;47.404;8.566;2023-06-10T10:20:22;96077.81;;;30.53;41.43
39243;BME280;29823;47.404;8.566;2023-06-10T10:22:56;96068.44;;;30.61;40.85
39243;BME280;29823;47.404;8.566;2023-06-10T10:25:27;96067.13;;;31.26;40.06
39243;BME280;29823;47.404;8.566;2023-06-10T10:28:05;96067.47;;;29.86;42.50
39243;BME280;29823;47.404;8.566;2023-06-10T10:30:37;96061.41;;;30.64;41.28
39243;BME280;29823;47.404;8.566;2023-06-10T10:33:11;96054.28;;;30.85;41.99
39243;BME280;29823;47.404;8.566;2023-06-10T10:35:41;96055.84;;;32.01;39.08
39243;BME280;29823;47.404;8.566;2023-06-10T10:38:09;96059.59;;;31.82;41.49
39243;BME280;29823;47.404;8.566;2023-06-10T10:40:38;96058.19;;;31.10;40.54
39243;BME280;29823;47.404;8.566;2023-06-10T10:43:08;96064.44;;;31.92;38.28
39243;BME280;29823;47.404;8.566;2023-06-10T10:45:37;96055.84;;;30.83;41.14
39243;BME280;29823;47.404;8.566;2023-06-10T10:48:07;96045.16;;;29.72;42.02
39243;BME280;29823;47.404;8.566;2023-06-10T10:50:39;96050.81;;;29.60;42.20
39243;BME280;29823;47.404;8.566;2023-06-10T10:53:07;96050.34;;;30.15;43.06
39243;BME280;29823;47.404;8.566;2023-06-10T10:55:35;96054.69;;;28.25;44.49
39243;BME280;29823;47.404;8.566;2023-06-10T10:58:06;96051.31;;;28.31;44.98
39243;BME280;29823;47.404;8.566;2023-06-10T11:00:36;96046.19;;;28.30;44.02
39243;BME280;29823;47.404;8.566;2023-06-10T11:03:06;96050.09;;;29.63;41.00
39243;BME280;29823;47.404;8.566;2023-06-10T11:05:39;96044.13;;;30.44;39.91
39243;BME280;29823;47.404;8.566;2023-06-10T11:08:08;96045.03;;;30.29;40.94
39243;BME280;29823;47.404;8.566;2023-06-10T11:10:37;96044.53;;;30.91;40.25
39243;BME280;29823;47.404;8.566;2023-06-10T11:13:06;96039.31;;;30.86;40.65
39243;BME280;29823;47.404;8.566;2023-06-10T11:15:43;96034.31;;;32.20;38.30
39243;BME280;29823;47.404;8.566;2023-06-10T11:18:19;96041.91;;;32.70;37.88
39243;BME280;29823;47.404;8.566;2023-06-10T11:20:56;96044.34;;;32.35;37.74
39243;BME280;29823;47.404;8.566;2023-06-10T11:23:34;96033.88;;;32.18;38.07
39243;BME280;29823;47.404;8.566;2023-06-10T11:26:30;96042.50;;;33.65;36.25
39243;BME280;29823;47.404;8.566;2023-06-10T11:29:17;96050.38;;;33.49;35.35
39243;BME280;29823;47.404;8.566;2023-06-10T11:31:51;96038.06;;;32.38;35.24
39243;BME280;29823;47.404;8.566;2023-06-10T11:34:23;96030.66;;;33.75;33.61
39243;BME280;29823;47.404;8.566;2023-06-10T11:36:53;96045.03;;;34.08;33.58
39243;BME280;29823;47.404;8.566;2023-06-10T11:39:22;96038.50;;;33.55;33.73
39243;BME280;29823;47.404;8.566;2023-06-10T11:41:53;96034.75;;;34.05;34.51
39243;BME280;29823;47.404;8.566;2023-06-10T11:44:21;96021.69;;;35.18;32.07
39243;BME280;29823;47.404;8.566;2023-06-10T11:46:51;96027.28;;;34.34;32.69
39243;BME280;29823;47.404;8.566;2023-06-10T11:49:20;96024.84;;;35.30;31.09
39243;BME280;29823;47.404;8.566;2023-06-10T11:51:48;96027.19;;;33.95;32.93
39243;BME280;29823;47.404;8.566;2023-06-10T11:54:18;96007.00;;;35.28;31.27
39243;BME280;29823;47.404;8.566;2023-06-10T11:56:47;96020.50;;;35.12;30.36
39243;BME280;29823;47.404;8.566;2023-06-10T11:59:15;96020.94;;;34.82;31.88
39243;BME280;29823;47.404;8.566;2023-06-10T12:01:44;96020.44;;;33.96;33.24
39243;BME280;29823;47.404;8.566;2023-06-10T12:04:15;96016.78;;;32.96;34.08
39243;BME280;29823;47.404;8.566;2023-06-10T12:06:46;96013.41;;;34.48;33.52
39243;BME280;29823;47.404;8.566;2023-06-10T12:09:18;96001.09;;;35.01;32.16
39243;BME280;29823;47.404;8.566;2023-06-10T12:11:54;96000.25;;;35.25;31.96
39243;BME280;29823;47.404;8.566;2023-06-10T12:14:50;96007.28;;;35.61;31.67
39243;BME280;29823;47.404;8.566;2023-06-10T12:17:21;95996.34;;;34.39;32.41
39243;BME280;29823;47.404;8.566;2023-06-10T12:19:51;96006.03;;;31.05;35.53
39243;BME280;29823;47.404;8.566;2023-06-10T12:22:19;96011.97;;;32.39;34.79
39243;BME280;29823;47.404;8.566;2023-06-10T12:24:58;96009.03;;;34.40;31.42
39243;BME280;29823;47.404;8.566;2023-06-10T12:27:27;96001.34;;;35.52;30.05
39243;BME280;29823;47.404;8.566;2023-06-10T12:29:57;96001.22;;;35.87;30.09
39243;BME280;29823;47.404;8.566;2023-06-10T12:32:35;95994.47;;;37.34;28.76
39243;BME280;29823;47.404;8.566;2023-06-10T12:35:06;96009.88;;;36.03;28.87
39243;BME280;29823;47.404;8.566;2023-06-10T12:37:34;96005.47;;;34.81;29.79
39243;BME280;29823;47.404;8.566;2023-06-10T12:40:07;95987.84;;;35.54;29.84
39243;BME280;29823;47.404;8.566;2023-06-10T12:42:36;95985.53;;;35.35;29.71
39243;BME280;29823;47.404;8.566;2023-06-10T12:45:06;95994.34;;;34.95;30.72
39243;BME280;29823;47.404;8.566;2023-06-10T12:47:37;95990.41;;;34.47;32.07
39243;BME280;29823;47.404;8.566;2023-06-10T12:50:08;95991.19;;;33.20;31.95
39243;BME280;29823;47.404;8.566;2023-06-10T12:52:38;95994.75;;;33.17;32.29
39243;BME280;29823;47.404;8.566;2023-06-10T12:55:07;95991.69;;;35.85;29.51
39243;BME280;29823;47.404;8.566;2023-06-10T12:57:35;95993.56;;;33.18;32.38
39243;BME280;29823;47.404;8.566;2023-06-10T13:00:04;95984.94;;;31.20;33.97
39243;BME280;29823;47.404;8.566;2023-06-10T13:02:35;95989.09;;;33.00;33.64
39243;BME280;29823;47.404;8.566;2023-06-10T13:05:03;95977.69;;;34.88;30.52
39243;BME280;29823;47.404;8.566;2023-06-10T13:07:36;95967.66;;;35.29;29.67
39243;BME280;29823;47.404;8.566;2023-06-10T13:10:04;95968.13;;;34.12;29.77